Time;durP1;ratioP1;P1;durP2;ratioP2;P2;SDS_P1;SDS_P2;PMS_P1;PMS_P2;Temp;Humidity;BMP_temperature;BMP_pressure;BME280_temperature;BME280_humidity;BME280_pressure;Samples;Min_cycle;Max_cycle;Signal;HPM_P1;HPM_P2
2022/10/20 00:01:30;;;;;;;12.73;6.03;;;;;;;8.21;89.96;101720.06;5011120;28;20109;-69
2022/10/20 00:03:57;;;;;;;9.15;6.70;;;;;;;8.18;90.12;101712.22;5007598;28;20046;-69
2022/10/20 00:06:28;;;;;;;11.80;6.68;;;;;;;8.18;90.11;101712.22;5012041;28;20038;-70
2022/10/20 00:08:59;;;;;;;12.30;7.13;;;;;;;8.14;90.07;101710.50;5012321;28;20501;-70
2022/10/20 00:11:28;;;;;;;10.27;7.30;;;;;;;8.14;90.21;101708.72;5012020;28;20057;-70
2022/10/20 00:13:57;;;;;;;12.07;7.30;;;;;;;8.12;90.42;101705.25;5017146;28;20069;-70
2022/10/20 00:16:28;;;;;;;12.07;7.55;;;;;;;8.13;90.51;101707.00;5011445;28;20054;-69
2022/10/20 00:18:58;;;;;;;11.52;7.53;;;;;;;8.10;90.39;101696.50;5012480;28;20042;-70
2022/10/20 00:21:27;;;;;;;10.18;7.88;;;;;;;8.08;90.60;101695.66;5019025;28;20041;-70
2022/10/20 00:23:57;;;;;;;12.23;8.05;;;;;;;8.06;90.71;101693.03;5010483;28;20093;-70
2022/10/20 00:26:27;;;;;;;12.60;7.80;;;;;;;8.04;90.62;101683.41;5016760;28;20089;-71
2022/10/20 00:28:55;;;;;;;10.95;7.18;;;;;;;8.02;90.91;101678.16;5020978;28;20046;-70
2022/10/20 00:31:24;;;;;;;11.25;7.57;;;;;;;8.02;90.93;101674.69;5013262;28;20065;-70
2022/10/20 00:33:52;;;;;;;14.00;7.63;;;;;;;8.01;91.07;101668.53;5005266;28;20069;-70
2022/10/20 00:36:22;;;;;;;13.43;7.75;;;;;;;8.03;90.87;101672.03;5003483;28;20042;-70
2022/10/20 00:38:54;;;;;;;13.63;7.43;;;;;;;8.02;91.11;101672.06;5013054;28;20046;-70
2022/10/20 00:41:21;;;;;;;10.35;7.40;;;;;;;8.00;91.23;101674.69;5017668;28;20497;-70
2022/10/20 00:43:56;;;;;;;10.23;7.30;;;;;;;8.01;91.28;101657.19;5015158;28;20042;-70
2022/10/20 00:46:40;;;;;;;12.40;7.47;;;;;;;8.00;91.23;101661.53;5011255;28;20046;-69
2022/10/20 00:49:21;;;;;;;15.43;7.40;;;;;;;8.00;91.44;101658.91;5006805;28;20039;-70
2022/10/20 00:51:51;;;;;;;14.60;7.40;;;;;;;8.01;91.37;101651.94;5002357;28;20061;-70
2022/10/20 00:54:25;;;;;;;13.75;7.50;;;;;;;7.99;91.61;101637.94;5012120;28;20038;-70
2022/10/20 00:56:55;;;;;;;11.60;6.93;;;;;;;7.98;91.68;101638.81;5007226;28;20129;-70
2022/10/20 00:59:30;;;;;;;13.40;6.85;;;;;;;7.96;91.80;101633.59;5018602;28;20535;-69
2022/10/20 01:02:01;;;;;;;11.00;6.82;;;;;;;7.97;91.76;101634.44;5013290;28;20038;-70
2022/10/20 01:04:30;;;;;;;12.93;6.47;;;;;;;7.95;91.82;101636.19;5004700;28;20136;-69
2022/10/20 01:06:58;;;;;;;11.23;6.88;;;;;;;7.96;91.91;101624.81;5002903;28;20533;-69
2022/10/20 01:09:27;;;;;;;10.82;6.93;;;;;;;7.96;92.14;101625.72;5012504;28;20042;-69
2022/10/20 01:12:27;;;;;;;11.23;7.78;;;;;;;7.96;92.14;101637.94;5011843;28;20536;-69
2022/10/20 01:15:19;;;;;;;13.70;7.68;;;;;;;7.95;92.29;101615.19;5022329;28;20104;-69
2022/10/20 01:18:03;;;;;;;11.77;8.27;;;;;;;7.96;92.37;101603.81;5001866;28;20073;-70
2022/10/20 01:21:03;;;;;;;16.10;7.75;;;;;;;7.96;92.45;101604.69;5009742;28;20042;-69
2022/10/20 01:24:29;;;;;;;13.52;8.00;;;;;;;7.94;92.79;101590.72;5006742;28;20054;-69
2022/10/20 01:27:27;;;;;;;16.23;8.43;;;;;;;7.92;92.87;101601.22;5023492;28;20049;-70
2022/10/20 01:30:15;;;;;;;13.25;8.00;;;;;;;7.95;92.91;101605.56;5013113;28;20042;-69
2022/10/20 01:33:13;;;;;;;11.73;8.25;;;;;;;7.93;92.96;101605.59;5004333;28;20043;-70
2022/10/20 01:36:23;;;;;;;12.25;7.72;;;;;;;7.92;92.91;101601.22;5011111;28;20034;-69
2022/10/20 01:39:01;;;;;;;12.52;7.85;;;;;;;7.92;93.09;101581.97;5007270;28;20035;-70
2022/10/20 01:41:38;;;;;;;14.20;7.88;;;;;;;7.95;93.07;101570.56;5011483;28;20093;-69
2022/10/20 01:44:13;;;;;;;12.95;7.80;;;;;;;7.92;93.17;101580.22;4998239;28;20042;-69
2022/10/20 01:46:43;;;;;;;14.18;7.47;;;;;;;7.97;93.20;101580.19;5012654;28;20509;-69
2022/10/20 01:49:13;;;;;;;14.30;8.13;;;;;;;7.96;93.24;101567.94;5008387;28;20053;-70
2022/10/20 01:51:40;;;;;;;12.52;7.68;;;;;;;7.95;93.24;101560.94;5010857;28;20093;-69
2022/10/20 01:54:29;;;;;;;15.20;8.13;;;;;;;7.94;93.35;101551.31;5011521;28;20060;-69
2022/10/20 01:57:35;;;;;;;13.65;7.68;;;;;;;7.93;93.41;101552.19;5010249;28;20043;-69
2022/10/20 02:00:13;;;;;;;14.18;8.93;;;;;;;7.92;93.73;101535.59;5011614;28;20055;-70
2022/10/20 02:03:12;;;;;;;12.27;9.15;;;;;;;7.93;93.40;101534.72;5010970;28;20038;-69
2022/10/20 02:06:10;;;;;;;13.13;8.52;;;;;;;7.91;93.45;101538.22;5010628;28;20046;-70
2022/10/20 02:08:51;;;;;;;18.25;10.35;;;;;;;7.91;93.55;101532.97;5010176;28;20050;-70
2022/10/20 02:11:30;;;;;;;15.25;9.65;;;;;;;7.89;93.50;101522.47;5006512;28;20134;-70
2022/10/20 02:13:58;;;;;;;17.52;9.93;;;;;;;7.88;93.70;101523.34;5011190;28;20034;-70
2022/10/20 02:16:39;;;;;;;16.75;10.40;;;;;;;7.87;93.48;101508.50;5010510;28;20034;-69
2022/10/20 02:19:10;;;;;;;15.75;10.50;;;;;;;7.91;93.78;101514.59;5008202;28;20053;-70
2022/10/20 02:21:37;;;;;;;14.75;9.25;;;;;;;7.88;93.74;101509.38;5007952;28;20093;-69
2022/10/20 02:24:08;;;;;;;14.98;9.77;;;;;;;7.89;93.54;101509.34;5015964;28;20050;-70
2022/10/20 02:26:39;;;;;;;15.52;9.80;;;;;;;7.87;93.68;101503.25;4993809;28;20130;-70
2022/10/20 02:29:28;;;;;;;15.50;8.98;;;;;;;7.87;93.74;101511.13;5005641;28;20053;-70
2022/10/20 02:31:55;;;;;;;17.92;9.38;;;;;;;7.85;93.83;101510.25;5006260;28;20049;-70
2022/10/20 02:34:27;;;;;;;14.65;9.32;;;;;;;7.85;93.77;101512.00;5010839;28;20519;-69
2022/10/20 02:36:58;;;;;;;16.42;8.82;;;;;;;7.86;93.97;101500.63;5002120;28;20042;-70
2022/10/20 02:39:26;;;;;;;15.20;9.00;;;;;;;7.87;93.84;101511.13;5008866;28;20039;-69
2022/10/20 02:41:53;;;;;;;15.35;9.10;;;;;;;7.87;93.99;101500.59;5012991;28;20047;-70
2022/10/20 02:44:21;;;;;;;14.35;8.73;;;;;;;7.87;94.20;101500.59;5009897;28;20539;-70
2022/10/20 02:46:48;;;;;;;16.25;9.65;;;;;;;7.88;94.07;101489.22;5014757;28;20097;-69
2022/10/20 02:49:15;;;;;;;13.32;9.13;;;;;;;7.87;94.05;101492.75;5008242;28;20042;-69
2022/10/20 02:51:42;;;;;;;13.15;8.95;;;;;;;7.89;94.10;101485.72;4995186;28;20042;-69
2022/10/20 02:54:10;;;;;;;14.13;8.93;;;;;;;7.90;94.08;101492.72;5010127;28;20046;-70
2022/10/20 02:56:37;;;;;;;13.50;9.10;;;;;;;7.87;94.20;101484.00;5009820;28;20494;-69
2022/10/20 02:59:04;;;;;;;16.40;8.98;;;;;;;7.87;94.16;101490.13;5015713;28;20844;-69
2022/10/20 03:01:33;;;;;;;15.32;9.15;;;;;;;7.88;93.96;101494.47;5015014;28;20077;-69
2022/10/20 03:04:00;;;;;;;14.90;8.95;;;;;;;7.88;94.25;101502.34;4992037;28;20070;-69
2022/10/20 03:06:27;;;;;;;14.57;9.20;;;;;;;7.88;94.19;101504.13;5003143;28;20049;-69
2022/10/20 03:08:54;;;;;;;14.43;9.45;;;;;;;7.84;94.28;101484.88;5008829;28;20112;-70
2022/10/20 03:11:21;;;;;;;15.40;9.55;;;;;;;7.83;94.09;101470.03;5008473;28;20030;-70
2022/10/20 03:13:49;;;;;;;16.50;9.43;;;;;;;7.84;94.38;101470.91;5010338;28;20054;-70
2022/10/20 03:16:16;;;;;;;13.50;9.20;;;;;;;7.84;94.06;101458.63;5010074;28;20070;-69
2022/10/20 03:18:43;;;;;;;12.90;9.00;;;;;;;7.85;94.22;101446.38;5008118;28;20132;-69
2022/10/20 03:21:10;;;;;;;12.35;8.75;;;;;;;7.84;94.19;101439.41;5010614;28;20042;-69
2022/10/20 03:23:37;;;;;;;14.65;8.85;;;;;;;7.83;94.30;101438.53;5009512;28;20058;-70
2022/10/20 03:26:08;;;;;;;14.55;9.55;;;;;;;7.84;94.28;101434.16;5007189;28;20050;-70
2022/10/20 03:28:38;;;;;;;14.90;9.13;;;;;;;7.82;94.46;101431.53;5010843;28;20076;-69
2022/10/20 03:31:06;;;;;;;14.15;8.52;;;;;;;7.85;94.30;101439.38;5020398;28;20042;-69
2022/10/20 03:33:33;;;;;;;18.15;9.70;;;;;;;7.83;94.28;101429.78;5010769;28;20073;-70
2022/10/20 03:36:00;;;;;;;17.23;9.38;;;;;;;7.85;94.44;101415.75;5009182;28;20035;-69
2022/10/20 03:38:27;;;;;;;16.58;9.65;;;;;;;7.88;94.45;101407.00;5008885;28;20041;-70
2022/10/20 03:40:55;;;;;;;15.77;9.77;;;;;;;7.92;94.50;101406.06;5010627;28;20057;-70
2022/10/20 03:43:23;;;;;;;13.82;9.77;;;;;;;7.95;94.57;101394.66;5019500;28;20046;-70
2022/10/20 03:45:50;;;;;;;14.40;8.63;;;;;;;7.96;94.52;101394.66;5014928;28;20784;-70
2022/10/20 03:48:17;;;;;;;17.42;9.88;;;;;;;7.93;94.50;101392.94;5006421;28;20054;-70
2022/10/20 03:50:44;;;;;;;15.98;9.80;;;;;;;7.97;94.58;101401.63;5007678;28;20042;-69
2022/10/20 03:53:13;;;;;;;16.02;9.60;;;;;;;7.96;94.43;101399.91;5009283;28;20536;-70
2022/10/20 03:55:40;;;;;;;17.60;10.13;;;;;;;7.96;94.63;101405.16;5025407;28;20714;-69
2022/10/20 03:58:07;;;;;;;17.48;10.43;;;;;;;7.99;94.77;101397.22;4994617;28;20043;-69
2022/10/20 04:00:34;;;;;;;13.90;9.55;;;;;;;8.01;94.67;101392.81;5006190;28;20190;-69
2022/10/20 04:03:01;;;;;;;14.40;9.70;;;;;;;8.01;94.87;101387.56;5009883;28;20720;-70
2022/10/20 04:05:28;;;;;;;19.73;9.70;;;;;;;8.05;94.87;101377.91;5005895;28;20043;-70
2022/10/20 04:07:55;;;;;;;13.65;9.40;;;;;;;8.11;94.66;101367.34;5009875;28;20101;-69
2022/10/20 04:10:22;;;;;;;18.48;9.63;;;;;;;8.15;94.60;101357.69;5011313;28;20039;-69
2022/10/20 04:12:49;;;;;;;16.33;10.02;;;;;;;8.16;94.69;101369.91;5008752;28;20038;-70
2022/10/20 04:15:19;;;;;;;15.70;9.43;;;;;;;8.19;94.88;101368.13;5011239;28;20035;-70
2022/10/20 04:17:46;;;;;;;18.67;10.02;;;;;;;8.23;94.87;101364.59;5015902;28;20081;-70
2022/10/20 04:20:13;;;;;;;15.85;10.40;;;;;;;8.28;94.77;101366.25;5006279;28;20034;-70
2022/10/20 04:22:40;;;;;;;17.75;9.35;;;;;;;8.32;94.58;101345.19;5006875;28;20058;-70
2022/10/20 04:25:08;;;;;;;18.80;9.90;;;;;;;8.38;94.52;101350.38;5019893;28;20165;-71
2022/10/20 04:27:35;;;;;;;16.55;9.65;;;;;;;8.42;94.52;101353.84;5007981;28;20042;-70
2022/10/20 04:30:03;;;;;;;19.50;9.93;;;;;;;8.44;94.60;101343.28;5018735;28;20097;-71
2022/10/20 04:32:30;;;;;;;14.70;9.23;;;;;;;8.47;94.68;101340.63;5014763;28;20042;-70
2022/10/20 04:34:57;;;;;;;19.55;10.27;;;;;;;8.52;94.59;101342.34;5010461;28;20042;-70
2022/10/20 04:37:24;;;;;;;14.68;9.73;;;;;;;8.61;94.40;101338.69;5006980;28;20508;-70
2022/10/20 04:39:51;;;;;;;18.02;10.07;;;;;;;8.64;94.42;101341.28;5012841;28;20042;-69
2022/10/20 04:42:19;;;;;;;14.25;9.55;;;;;;;8.72;94.33;101330.69;5013691;28;20112;-69
2022/10/20 04:44:46;;;;;;;17.67;9.57;;;;;;;8.78;93.88;101321.84;5013712;28;20034;-70
2022/10/20 04:47:13;;;;;;;17.35;9.80;;;;;;;8.79;93.94;101321.78;5011967;28;20054;-69
2022/10/20 04:49:40;;;;;;;17.00;10.20;;;;;;;8.80;93.94;101320.91;5011581;28;20527;-70
2022/10/20 04:52:07;;;;;;;16.23;8.65;;;;;;;8.84;94.09;101324.34;5012730;28;20054;-70
2022/10/20 04:54:35;;;;;;;15.13;9.10;;;;;;;8.93;94.28;101313.69;5020341;28;20034;-70
2022/10/20 04:57:03;;;;;;;16.63;9.02;;;;;;;9.02;94.38;101304.78;5011155;28;20497;-70
2022/10/20 04:59:30;;;;;;;13.45;8.38;;;;;;;9.12;94.61;101293.22;5019705;28;20046;-70
2022/10/20 05:01:57;;;;;;;15.00;9.00;;;;;;;9.29;93.96;101294.69;5014628;28;20069;-70
2022/10/20 05:04:24;;;;;;;16.10;8.85;;;;;;;9.42;94.48;101282.16;5018072;28;20540;-70
2022/10/20 05:07:17;;;;;;;11.50;8.00;;;;;;;9.58;93.29;101299.44;5022234;28;20060;-70
2022/10/20 05:09:47;;;;;;;14.43;8.10;;;;;;;9.65;92.92;101292.28;5013201;28;20161;-70
2022/10/20 05:12:14;;;;;;;16.65;8.68;;;;;;;9.72;92.08;101285.13;5012261;28;20038;-70
2022/10/20 05:14:56;;;;;;;13.18;7.90;;;;;;;9.78;91.57;101283.22;5012390;28;20540;-70
2022/10/20 05:17:23;;;;;;;19.55;8.80;;;;;;;9.80;91.33;101272.69;5018190;28;20053;-70
2022/10/20 05:19:50;;;;;;;14.57;8.48;;;;;;;9.80;90.88;101270.06;5011797;28;20097;-70
2022/10/20 05:22:17;;;;;;;15.45;8.18;;;;;;;9.76;90.17;101269.25;5011308;28;20440;-69
2022/10/20 05:24:44;;;;;;;13.30;8.32;;;;;;;9.65;89.97;101260.69;5011446;28;20039;-69
2022/10/20 05:27:11;;;;;;;16.05;8.60;;;;;;;9.52;89.77;101261.81;5012791;28;20390;-70
2022/10/20 05:29:38;;;;;;;13.52;8.65;;;;;;;9.43;90.21;101249.69;5027568;28;20053;-69
2022/10/20 05:32:05;;;;;;;15.18;8.10;;;;;;;9.35;90.52;101249.88;5025522;28;20093;-70
2022/10/20 05:34:32;;;;;;;12.50;8.70;;;;;;;9.29;90.72;101252.59;5011804;28;20857;-69
2022/10/20 05:37:00;;;;;;;15.00;8.40;;;;;;;9.25;91.09;101249.16;5021997;28;20049;-70
2022/10/20 05:39:28;;;;;;;14.25;8.82;;;;;;;9.20;91.37;101244.88;5026108;28;20117;-70
2022/10/20 05:41:55;;;;;;;15.77;9.05;;;;;;;9.16;91.46;101257.22;5002587;28;20046;-70
2022/10/20 05:44:22;;;;;;;12.13;8.55;;;;;;;9.16;91.64;101252.81;4991789;28;20046;-70
2022/10/20 05:46:49;;;;;;;15.80;9.23;;;;;;;9.15;91.63;101239.69;5001747;28;20492;-70
2022/10/20 05:49:16;;;;;;;17.33;9.20;;;;;;;9.13;91.86;101236.22;5011273;28;20043;-70
2022/10/20 05:52:09;;;;;;;13.98;8.70;;;;;;;9.13;91.81;101221.31;5010706;28;20038;-70
2022/10/20 05:54:36;;;;;;;14.95;8.93;;;;;;;9.12;91.77;101202.91;5012119;28;20046;-70
2022/10/20 05:57:03;;;;;;;14.30;8.93;;;;;;;9.13;91.73;101189.75;5030902;28;20094;-70
2022/10/20 05:59:31;;;;;;;12.48;8.55;;;;;;;9.14;91.79;101202.00;5004854;28;20527;-70
2022/10/20 06:01:58;;;;;;;13.25;9.05;;;;;;;9.11;91.99;101227.47;5003205;28;20046;-70
2022/10/20 06:04:26;;;;;;;15.10;8.63;;;;;;;9.11;92.27;101251.16;5023840;28;20598;-70
2022/10/20 06:06:55;;;;;;;15.95;9.10;;;;;;;9.08;92.52;101254.72;5031728;28;20049;-70
2022/10/20 06:09:23;;;;;;;17.15;9.30;;;;;;;9.10;92.38;101241.56;5012412;28;20131;-70
2022/10/20 06:11:51;;;;;;;11.90;8.40;;;;;;;9.12;92.46;101252.88;5017759;28;20512;-70
2022/10/20 06:14:21;;;;;;;17.88;9.45;;;;;;;9.11;92.68;101256.41;5011997;28;20590;-70
2022/10/20 06:16:53;;;;;;;17.13;9.75;;;;;;;9.13;92.74;101266.03;5016082;28;20599;-70
2022/10/20 06:19:23;;;;;;;13.38;8.77;;;;;;;9.13;92.68;101266.03;5018481;28;20038;-70
2022/10/20 06:21:51;;;;;;;19.30;9.48;;;;;;;9.14;92.76;101266.88;5016803;28;20046;-70
2022/10/20 06:24:19;;;;;;;14.32;9.25;;;;;;;9.14;92.70;101266.88;5012387;28;20050;-70
2022/10/20 06:26:46;;;;;;;15.15;8.88;;;;;;;9.17;92.45;101269.47;5009042;28;20047;-70
2022/10/20 06:29:16;;;;;;;14.38;9.20;;;;;;;9.19;92.39;101256.28;5007466;28;20040;-70
2022/10/20 06:31:48;;;;;;;16.33;9.65;;;;;;;9.19;92.55;101262.44;5032212;28;20042;-70
2022/10/20 06:34:24;;;;;;;17.35;8.55;;;;;;;9.18;92.61;101273.84;5020732;28;20409;-71
2022/10/20 06:36:51;;;;;;;13.95;8.73;;;;;;;9.19;92.67;101282.59;5014967;28;20045;-70
2022/10/20 06:39:23;;;;;;;19.88;9.15;;;;;;;9.24;92.84;101272.88;5014990;28;20460;-70
2022/10/20 06:41:54;;;;;;;15.75;9.13;;;;;;;9.26;92.53;101265.81;5012155;28;20064;-70
2022/10/20 06:44:23;;;;;;;15.05;9.30;;;;;;;9.26;92.65;101263.19;5012784;28;20038;-72
2022/10/20 06:46:53;;;;;;;14.18;8.90;;;;;;;9.28;92.58;101261.38;5011576;28;20959;-72
2022/10/20 06:49:21;;;;;;;14.98;9.27;;;;;;;9.31;92.26;101246.41;5010004;28;20595;-72
2022/10/20 06:51:49;;;;;;;14.75;8.82;;;;;;;9.35;92.18;101241.09;5013247;28;20330;-72
2022/10/20 06:54:16;;;;;;;14.45;9.35;;;;;;;9.37;91.89;101237.53;5025161;28;20038;-72
2022/10/20 06:56:43;;;;;;;16.23;9.23;;;;;;;9.36;92.40;101259.47;5025646;28;20034;-72
2022/10/20 06:59:12;;;;;;;14.13;8.50;;;;;;;9.39;92.55;101272.56;5020377;28;20048;-72
2022/10/20 07:01:39;;;;;;;14.50;8.90;;;;;;;9.44;92.75;101272.50;5011552;28;20559;-72
2022/10/20 07:04:13;;;;;;;14.68;8.65;;;;;;;9.52;92.80;101272.34;5011516;28;20049;-72
2022/10/20 07:06:44;;;;;;;14.18;8.85;;;;;;;9.57;92.71;101249.44;5011457;28;20042;-72
2022/10/20 07:09:18;;;;;;;16.90;8.50;;;;;;;9.62;92.21;101232.66;5011215;28;20428;-72
2022/10/20 07:11:50;;;;;;;;;;;;;;;9.64;92.35;101238.75;5012429;28;20042;-72
2022/10/20 07:14:17;;;;;;;15.27;8.77;;;;;;;9.69;92.33;101250.97;5011896;28;20478;-72
2022/10/20 07:16:45;;;;;;;16.00;9.30;;;;;;;9.75;92.34;101254.34;5011990;28;20093;-72
2022/10/20 07:19:12;;;;;;;16.85;9.30;;;;;;;9.83;92.46;101250.69;5010841;28;20516;-71
2022/10/20 07:21:39;;;;;;;14.70;8.77;;;;;;;9.88;92.40;101249.69;5010327;28;20426;-72
2022/10/20 07:24:14;;;;;;;15.15;8.13;;;;;;;9.99;92.28;101245.97;5011513;28;20054;-72
2022/10/20 07:26:41;;;;;;;16.23;8.85;;;;;;;10.04;91.95;101242.34;5043332;28;20551;-72
2022/10/20 07:29:13;;;;;;;14.02;8.40;;;;;;;10.10;91.73;101249.25;5011199;28;20094;-72
2022/10/20 07:31:46;;;;;;;12.77;8.57;;;;;;;10.21;91.82;101246.34;5010887;28;20515;-72
2022/10/20 07:34:16;;;;;;;13.95;8.43;;;;;;;10.30;91.53;101234.75;5011251;28;20546;-72
2022/10/20 07:36:51;;;;;;;12.65;8.48;;;;;;;10.36;91.61;101242.50;5011303;28;20483;-72
2022/10/20 07:39:19;;;;;;;10.93;8.30;;;;;;;10.47;91.31;101237.03;5010999;28;20054;-71
2022/10/20 07:41:46;;;;;;;14.45;8.20;;;;;;;10.65;90.71;101248.88;5011023;28;20069;-72
2022/10/20 07:44:15;;;;;;;12.52;7.47;;;;;;;10.75;90.53;101245.13;5011308;28;20053;-72
2022/10/20 07:46:43;;;;;;;10.93;7.43;;;;;;;10.87;90.50;101246.63;5011407;28;20129;-72
2022/10/20 07:49:10;;;;;;;12.68;7.05;;;;;;;11.01;90.12;101243.63;5010339;28;20046;-72
2022/10/20 07:51:58;;;;;;;10.10;7.40;;;;;;;11.13;89.78;101242.44;5011263;28;20579;-72
2022/10/20 07:54:25;;;;;;;14.32;6.82;;;;;;;11.23;89.67;101245.69;5011897;28;20593;-72
2022/10/20 07:56:52;;;;;;;9.52;6.50;;;;;;;11.36;89.05;101247.09;5010845;28;20120;-72
2022/10/20 07:59:19;;;;;;;11.77;6.68;;;;;;;11.45;88.81;101243.34;5010925;28;20566;-72
2022/10/20 08:01:46;;;;;;;8.45;5.93;;;;;;;11.55;88.32;101222.84;5011032;28;20482;-72
2022/10/20 08:04:13;;;;;;;9.48;6.22;;;;;;;11.63;88.03;101229.63;5010869;28;20042;-72
2022/10/20 08:06:40;;;;;;;10.00;6.65;;;;;;;11.72;87.39;101219.69;5011329;28;20043;-72
2022/10/20 08:09:08;;;;;;;9.45;6.45;;;;;;;11.80;86.79;101212.44;5010509;28;20717;-71
2022/10/20 08:11:35;;;;;;;10.25;6.45;;;;;;;11.85;86.48;101207.00;5010587;28;20575;-72
2022/10/20 08:14:02;;;;;;;12.30;6.40;;;;;;;11.91;86.18;101210.31;5012388;28;20043;-72
2022/10/20 08:16:30;;;;;;;11.82;6.38;;;;;;;11.97;85.94;101214.53;5014408;28;20046;-72
2022/10/20 08:18:58;;;;;;;11.82;6.22;;;;;;;12.00;86.12;101211.84;5009119;28;20051;-72
2022/10/20 08:21:57;;;;;;;13.50;6.28;;;;;;;12.04;85.73;101202.06;4970904;28;20082;-72
2022/10/20 08:24:24;;;;;;;9.95;6.40;;;;;;;12.08;85.61;101196.63;4972051;28;20055;-72
2022/10/20 08:26:51;;;;;;;8.82;6.20;;;;;;;12.14;85.37;101197.38;4971953;28;20090;-72
2022/10/20 08:29:18;;;;;;;9.27;5.90;;;;;;;12.21;85.16;101205.03;4971794;28;20059;-71
2022/10/20 08:31:45;;;;;;;11.77;6.20;;;;;;;12.26;85.28;101211.06;4971821;28;20043;-71
2022/10/20 08:34:13;;;;;;;9.15;6.38;;;;;;;12.34;84.62;101213.47;4978925;28;20061;-72
2022/10/20 08:36:40;;;;;;;11.30;6.22;;;;;;;12.41;84.14;101209.69;4991687;28;20059;-72
2022/10/20 08:39:07;;;;;;;12.30;6.03;;;;;;;12.49;83.96;101198.00;4996644;28;20113;-72
2022/10/20 08:41:41;;;;;;;9.48;5.85;;;;;;;12.54;84.23;101199.56;5013764;28;20042;-72
2022/10/20 08:44:33;;;;;;;10.60;6.03;;;;;;;12.62;83.53;101201.09;5013490;28;20065;-72
2022/10/20 08:47:13;;;;;;;11.05;5.93;;;;;;;12.66;83.74;101208.03;5012318;28;20272;-72
2022/10/20 08:49:40;;;;;;;7.53;5.90;;;;;;;12.72;83.42;101198.13;5013312;28;20038;-72
2022/10/20 08:52:14;;;;;;;8.63;5.90;;;;;;;12.83;83.37;101188.94;5013424;28;20651;-72
2022/10/20 08:54:41;;;;;;;10.18;5.93;;;;;;;12.94;82.81;101177.97;5013643;28;20050;-72
2022/10/20 08:57:23;;;;;;;9.02;5.63;;;;;;;13.07;82.89;101184.59;5013958;28;20801;-72
2022/10/20 08:59:53;;;;;;;8.15;5.75;;;;;;;13.20;82.30;101185.88;5013248;28;20038;-72
2022/10/20 09:02:21;;;;;;;10.95;5.80;;;;;;;13.31;82.52;101187.28;5012921;28;20480;-72
2022/10/20 09:04:58;;;;;;;9.73;6.05;;;;;;;13.46;82.04;101177.94;5013475;28;20488;-72
2022/10/20 09:07:33;;;;;;;9.60;6.07;;;;;;;13.68;81.81;101185.09;5013469;28;20042;-72
2022/10/20 09:10:31;;;;;;;9.65;6.13;;;;;;;13.90;81.85;101196.56;4993707;28;20536;-72
2022/10/20 09:12:59;;;;;;;8.00;6.10;;;;;;;14.02;80.92;101183.78;4993735;28;20641;-73
2022/10/20 09:15:27;;;;;;;10.73;5.70;;;;;;;14.06;79.84;101188.88;4996755;28;20042;-72
2022/10/20 09:18:01;;;;;;;12.15;5.47;;;;;;;14.08;80.26;101183.53;5013102;28;20101;-73
2022/10/20 09:20:54;;;;;;;9.68;5.78;;;;;;;14.08;80.45;101179.09;5013311;28;20097;-72
2022/10/20 09:23:47;;;;;;;12.90;6.00;;;;;;;14.16;79.50;101176.16;5012193;28;20058;-72
2022/10/20 09:26:34;;;;;;;11.10;5.90;;;;;;;14.19;79.28;101167.19;5012374;28;20054;-73
2022/10/20 09:29:34;;;;;;;13.20;6.20;;;;;;;14.21;78.73;101160.91;5012746;28;20101;-73
2022/10/20 09:32:01;;;;;;;10.63;5.95;;;;;;;14.26;78.29;101171.31;5013483;28;20053;-72
2022/10/20 09:34:49;;;;;;;9.43;5.65;;;;;;;14.28;78.67;101158.88;5013418;28;20049;-72
2022/10/20 09:37:18;;;;;;;12.20;6.35;;;;;;;14.29;79.00;101171.19;5012579;28;20130;-72
2022/10/20 09:39:45;;;;;;;10.05;6.13;;;;;;;14.31;78.75;101153.44;5012864;28;20046;-72
2022/10/20 09:42:27;;;;;;;11.45;6.72;;;;;;;14.35;77.86;101159.47;5013059;28;20046;-72
2022/10/20 09:45:14;;;;;;;8.55;5.72;;;;;;;14.32;78.03;101157.81;5013057;28;20050;-72
2022/10/20 09:47:47;;;;;;;12.30;6.90;;;;;;;14.32;78.68;101156.94;5012761;28;20038;-72
2022/10/20 09:50:35;;;;;;;10.02;6.47;;;;;;;14.35;79.02;101154.19;5012774;28;20050;-72
2022/10/20 09:53:16;;;;;;;10.55;7.18;;;;;;;14.39;78.57;101163.75;5012722;28;20519;-72
2022/10/20 09:55:49;;;;;;;19.52;7.35;;;;;;;14.38;78.76;101154.06;5013096;28;20086;-72
2022/10/20 09:58:31;;;;;;;10.68;7.10;;;;;;;14.38;78.27;101144.31;5012648;28;20042;-72
2022/10/20 10:01:20;;;;;;;12.70;6.72;;;;;;;14.34;78.66;101158.63;5012395;28;20050;-72
2022/10/20 10:03:51;;;;;;;11.95;7.00;;;;;;;14.34;78.52;101149.78;5012768;28;20074;-72
2022/10/20 10:06:18;;;;;;;15.65;7.63;;;;;;;14.34;79.13;101136.53;5011656;28;20046;-72
2022/10/20 10:08:46;;;;;;;11.38;7.05;;;;;;;14.35;79.20;101131.16;5012044;28;20043;-72
2022/10/20 10:11:18;;;;;;;8.90;6.85;;;;;;;14.35;79.24;101138.25;5012837;28;20050;-72
2022/10/20 10:13:49;;;;;;;12.25;6.80;;;;;;;14.32;79.01;101164.91;5012495;28;20087;-72
2022/10/20 10:16:21;;;;;;;10.00;7.40;;;;;;;14.27;79.12;101181.88;5011669;28;20132;-73
2022/10/20 10:19:03;;;;;;;9.40;7.28;;;;;;;14.18;79.56;101168.13;5028251;28;20038;-71
2022/10/20 10:21:46;;;;;;;13.32;7.18;;;;;;;14.14;79.87;101178.00;5025196;28;20055;-72
2022/10/20 10:24:40;;;;;;;12.05;7.22;;;;;;;14.11;79.99;101160.44;5015412;28;20042;-72
2022/10/20 10:27:19;;;;;;;17.77;8.05;;;;;;;14.11;80.14;101170.16;5028996;28;20047;-72
2022/10/20 10:29:46;;;;;;;14.40;7.95;;;;;;;14.09;80.49;101174.66;5025491;28;20129;-73
2022/10/20 10:32:27;;;;;;;11.93;6.88;;;;;;;14.08;80.30;101168.50;5031844;28;20135;-72
2022/10/20 10:35:12;;;;;;;13.27;7.55;;;;;;;14.10;80.16;101171.94;5010957;28;20042;-72
2022/10/20 10:37:43;;;;;;;15.93;7.75;;;;;;;14.09;80.35;101175.53;5023045;28;20523;-71
2022/10/20 10:40:16;;;;;;;11.38;7.25;;;;;;;14.11;80.16;101167.50;5011904;28;20457;-71
2022/10/20 10:43:15;;;;;;;10.40;7.05;;;;;;;14.11;79.82;101163.06;5011728;28;20039;-72
2022/10/20 10:45:51;;;;;;;10.95;7.25;;;;;;;14.09;79.93;101178.16;5014667;28;20125;-71
2022/10/20 10:48:56;;;;;;;14.65;7.00;;;;;;;14.10;80.18;101164.00;5013453;28;20047;-71
2022/10/20 10:52:10;;;;;;;13.13;7.07;;;;;;;14.10;80.50;101156.03;5006507;28;20046;-72
2022/10/20 10:55:14;;;;;;;9.60;7.03;;;;;;;14.08;80.73;101154.38;4992053;28;20110;-72
2022/10/20 10:58:40;;;;;;;10.00;7.47;;;;;;;14.03;81.36;101149.28;4992619;28;20043;-72
2022/10/20 11:01:41;;;;;;;12.07;7.15;;;;;;;14.01;81.54;101140.50;5012736;28;20169;-72
2022/10/20 11:04:08;;;;;;;10.98;7.10;;;;;;;14.01;81.69;101137.84;4991441;28;20524;-72
2022/10/20 11:07:07;;;;;;;9.52;7.22;;;;;;;14.00;81.94;101137.91;5002992;28;20081;-72
2022/10/20 11:10:04;;;;;;;11.77;7.50;;;;;;;14.00;82.32;101132.59;5011478;28;20039;-72
2022/10/20 11:13:18;;;;;;;12.15;7.65;;;;;;;14.01;82.36;101129.91;5011599;28;20097;-72
2022/10/20 11:16:28;;;;;;;18.35;7.97;;;;;;;14.03;82.43;101130.72;4991377;28;20042;-72
2022/10/20 11:19:26;;;;;;;18.85;8.00;;;;;;;14.07;82.21;101121.69;5008101;28;20042;-72
2022/10/20 11:22:14;;;;;;;13.02;7.47;;;;;;;14.07;82.54;101116.38;5023667;28;20078;-72
2022/10/20 11:24:56;;;;;;;11.57;7.57;;;;;;;14.10;82.52;101118.06;5015932;28;20038;-72
2022/10/20 11:27:33;;;;;;;11.05;7.07;;;;;;;14.11;82.89;101133.03;5011392;28;20046;-71
2022/10/20 11:30:20;;;;;;;11.65;7.65;;;;;;;14.09;83.10;101130.44;5009685;28;20050;-72
2022/10/20 11:33:11;;;;;;;14.07;7.20;;;;;;;14.12;82.96;101137.41;5014586;28;20292;-72
2022/10/20 11:35:50;;;;;;;13.77;7.43;;;;;;;14.08;83.41;101133.19;5015566;28;20038;-72
2022/10/20 11:38:31;;;;;;;15.05;8.50;;;;;;;14.02;83.71;101122.81;5018575;28;20101;-71
2022/10/20 11:41:39;;;;;;;12.43;8.07;;;;;;;13.94;84.08;101112.50;5013059;28;20034;-71
2022/10/20 11:44:26;;;;;;;16.45;8.73;;;;;;;13.79;84.73;101120.16;5005160;28;20480;-72
2022/10/20 11:47:01;;;;;;;15.18;9.57;;;;;;;13.69;85.30;101112.59;5010456;28;20046;-72
2022/10/20 11:49:32;;;;;;;17.17;9.60;;;;;;;13.61;86.26;101129.66;5024016;28;20038;-72
2022/10/20 11:52:46;;;;;;;14.65;9.93;;;;;;;13.53;86.91;101142.34;5021307;28;20496;-73
2022/10/20 11:55:31;;;;;;;19.63;9.45;;;;;;;13.41;87.86;101151.63;4997559;28;20050;-71